EPSC/SZZ METAR and TAF weather

Enter ICAO airport designator
Station Type Date Time Source
EPSC METAR 2019/04/26 04:00 UTC NOAA

EPSC 260400Z 07008KT CAVOK 14/10 Q1009


Station Type Date Time Source
EPSC Decoded METAR 2019/04/26 04:00 UTC NOAA

Szczecin, Poland (EPSC) 53-24N 014-37E 3M
Apr 26, 2019 - 12:00 AM EDT / 2019.04.26 0400 UTC
Wind: from the ENE (070 degrees) at 9 MPH (8 KT):0
Visibility: greater than 7 mile(s):0
Temperature: 57 F (14 C)
Dew Point: 50 F (10 C)
Relative Humidity: 76%
Pressure (altimeter): 29.80 in. Hg (1009 hPa)
ob: EPSC 260400Z 07008KT CAVOK 14/10 Q1009
cycle: 4

Station Type Date Time Source
EPSC TAF 2019/04/25 18:33 UTC NOAA

TAF EPSC 251730Z 2518/2618 VRB02KT CAVOK
BECMG 2518/2521 06010KT PROB30
TEMPO 2522/2605 3000 BR
TEMPO 2610/2618 BKN035CB
BECMG 2613/2615 24010KT PROB40
TEMPO 2615/2618 TSRA

Example: see airport list